createdAt,value
2018-09-09T00:00:38.880Z,3.27
2018-09-09T00:03:08.718Z,3.30
2018-09-09T00:05:38.106Z,3.10
2018-09-09T00:08:07.522Z,3.67
2018-09-09T00:10:37.885Z,2.80
2018-09-09T00:13:07.493Z,2.90
2018-09-09T00:15:36.930Z,3.10
2018-09-09T00:18:06.300Z,2.77
2018-09-09T00:20:35.635Z,3.00
2018-09-09T00:23:05.113Z,3.17
2018-09-09T00:25:34.525Z,2.83
2018-09-09T00:28:04.312Z,3.37
2018-09-09T00:30:35.974Z,3.13
2018-09-09T00:33:05.168Z,2.83
2018-09-09T00:35:40.996Z,2.83
2018-09-09T00:38:10.222Z,3.17
2018-09-09T00:41:00.104Z,2.60
2018-09-09T00:43:29.224Z,2.90
2018-09-09T00:45:58.402Z,3.07
2018-09-09T00:48:27.565Z,2.87
2018-09-09T00:51:02.037Z,2.80
2018-09-09T00:53:36.655Z,3.33
2018-09-09T00:56:06.028Z,3.00
2018-09-09T00:58:35.474Z,2.73
2018-09-09T01:01:09.991Z,2.33
2018-09-09T01:03:39.654Z,2.80
2018-09-09T01:06:09.134Z,2.67
2018-09-09T01:08:44.589Z,2.70
2018-09-09T01:11:14.035Z,2.63
2018-09-09T01:13:43.513Z,2.57
2018-09-09T01:16:12.966Z,2.77
2018-09-09T01:18:49.756Z,2.70
2018-09-09T01:21:19.090Z,3.17
2018-09-09T01:23:48.526Z,3.10
2018-09-09T01:26:17.924Z,3.23
2018-09-09T01:28:57.960Z,2.90
2018-09-09T01:31:27.350Z,2.70
2018-09-09T01:33:56.809Z,3.00
2018-09-09T01:36:26.160Z,3.17
2018-09-09T01:38:56.631Z,3.03
2018-09-09T01:41:25.966Z,3.00
2018-09-09T01:43:55.286Z,2.63
2018-09-09T01:46:24.618Z,3.17
2018-09-09T01:49:01.384Z,2.90
2018-09-09T01:51:30.849Z,2.70
2018-09-09T01:54:00.190Z,3.00
2018-09-09T01:56:29.587Z,3.37
2018-09-09T01:59:03.242Z,3.10
2018-09-09T02:01:32.686Z,3.33
2018-09-09T02:04:08.949Z,3.17
2018-09-09T02:06:38.320Z,2.73
2018-09-09T02:09:25.534Z,2.93
2018-09-09T02:11:54.905Z,2.67
2018-09-09T02:14:24.365Z,3.20
2018-09-09T02:16:53.756Z,3.27
2018-09-09T02:19:23.229Z,3.20
2018-09-09T02:21:52.556Z,3.43
2018-09-09T02:24:21.916Z,3.10
2018-09-09T02:26:51.323Z,3.23
2018-09-09T02:29:21.823Z,3.10
2018-09-09T02:31:51.318Z,2.80
2018-09-09T02:34:20.713Z,3.30
2018-09-09T02:36:50.085Z,3.83
2018-09-09T02:39:20.498Z,3.53
2018-09-09T02:41:49.890Z,3.10
2018-09-09T02:44:19.225Z,3.10
2018-09-09T02:46:48.620Z,3.07
2018-09-09T02:49:18.105Z,3.57
2018-09-09T02:51:47.497Z,2.80
2018-09-09T02:54:16.897Z,3.27
2018-09-09T02:56:46.312Z,3.13
2018-09-09T02:59:22.853Z,3.50
2018-09-09T03:01:52.186Z,3.63
2018-09-09T03:04:21.596Z,3.43
2018-09-09T03:06:51.016Z,3.60
2018-09-09T03:09:27.097Z,3.30
2018-09-09T03:11:56.597Z,3.50
2018-09-09T03:14:25.937Z,2.97
2018-09-09T03:16:55.352Z,3.60
2018-09-09T03:19:24.767Z,3.73
2018-09-09T03:21:53.921Z,3.10
2018-09-09T03:24:23.296Z,3.90
2018-09-09T03:26:52.640Z,3.27
2018-09-09T03:29:23.070Z,3.30
2018-09-09T03:31:52.456Z,3.20
2018-09-09T03:34:21.806Z,3.43
2018-09-09T03:36:51.130Z,3.30
2018-09-09T03:39:21.646Z,3.03
2018-09-09T03:41:51.053Z,3.17
2018-09-09T03:44:20.379Z,3.77
2018-09-09T03:46:49.766Z,3.37
2018-09-09T03:49:19.255Z,3.17
2018-09-09T03:51:48.593Z,3.27
2018-09-09T03:54:17.978Z,3.37
2018-09-09T03:56:47.334Z,3.33
2018-09-09T03:59:24.585Z,3.00
2018-09-09T04:01:54.006Z,3.53
2018-09-09T04:04:23.398Z,3.50
2018-09-09T04:06:52.804Z,3.37
2018-09-09T04:09:23.381Z,3.43
2018-09-09T04:11:52.836Z,3.43
2018-09-09T04:14:22.361Z,3.50
2018-09-09T04:16:51.699Z,3.90
2018-09-09T04:19:24.597Z,3.50
2018-09-09T04:21:53.999Z,3.50
2018-09-09T04:24:24.043Z,3.37
2018-09-09T04:26:53.419Z,3.17
2018-09-09T04:29:22.850Z,3.20
2018-09-09T04:31:52.302Z,3.80
2018-09-09T04:34:21.718Z,3.70
2018-09-09T04:36:51.202Z,3.03
2018-09-09T04:39:20.709Z,3.87
2018-09-09T04:41:50.125Z,3.43
2018-09-09T04:44:19.513Z,3.30
2018-09-09T04:46:48.910Z,3.50
2018-09-09T04:49:19.265Z,3.63
2018-09-09T04:51:48.653Z,3.67
2018-09-09T04:54:18.044Z,3.60
2018-09-09T04:56:47.505Z,3.33
2018-09-09T04:59:34.261Z,3.20
2018-09-09T05:02:03.598Z,3.60
2018-09-09T05:04:32.981Z,3.40
2018-09-09T05:07:02.473Z,3.50
2018-09-09T05:09:31.692Z,3.80
2018-09-09T05:12:00.776Z,3.40
2018-09-09T05:14:29.877Z,3.30
2018-09-09T05:16:59.089Z,4.33
2018-09-09T05:19:30.481Z,3.23
2018-09-09T05:21:59.904Z,3.87
2018-09-09T05:24:29.408Z,3.10
2018-09-09T05:26:58.833Z,3.83
2018-09-09T05:29:29.339Z,3.50
2018-09-09T05:31:58.715Z,3.47
2018-09-09T05:34:28.097Z,3.43
2018-09-09T05:36:57.502Z,3.40
2018-09-09T05:39:28.014Z,3.00
2018-09-09T05:41:57.424Z,3.47
2018-09-09T05:44:26.807Z,3.20
2018-09-09T05:46:56.277Z,3.20
2018-09-09T05:49:25.845Z,3.07
2018-09-09T05:51:55.301Z,3.20
2018-09-09T05:54:24.632Z,3.40
2018-09-09T05:56:54.093Z,3.13
2018-09-09T05:59:23.630Z,3.43
2018-09-09T06:01:53.136Z,3.47
2018-09-09T06:04:22.681Z,3.60
2018-09-09T06:06:52.077Z,3.57
2018-09-09T06:09:39.795Z,3.33
2018-09-09T06:12:08.880Z,3.13
2018-09-09T06:14:38.017Z,2.83
2018-09-09T06:17:07.224Z,3.00
2018-09-09T06:19:43.893Z,2.90
2018-09-09T06:22:13.008Z,3.10
2018-09-09T06:24:42.147Z,3.47
2018-09-09T06:27:11.312Z,3.50
2018-09-09T06:29:59.797Z,2.80
2018-09-09T06:32:28.924Z,3.27
2018-09-09T06:34:58.059Z,3.40
2018-09-09T06:37:27.248Z,3.40
2018-09-09T06:40:18.240Z,3.10
2018-09-09T06:42:47.362Z,3.30
2018-09-09T06:45:16.487Z,3.40
2018-09-09T06:47:45.602Z,3.10
2018-09-09T06:50:19.301Z,3.53
2018-09-09T06:52:48.538Z,3.73
2018-09-09T06:55:17.938Z,3.67
2018-09-09T06:57:47.189Z,3.80
2018-09-09T07:00:16.634Z,4.40
2018-09-09T07:02:45.961Z,3.63
2018-09-09T07:05:15.381Z,4.03
2018-09-09T07:07:44.828Z,3.77
2018-09-09T07:10:30.628Z,4.00
2018-09-09T07:12:59.984Z,3.83
2018-09-09T07:15:29.426Z,4.57
2018-09-09T07:17:58.485Z,3.90
2018-09-09T07:27:26.840Z,4.97
2018-09-09T07:29:57.096Z,4.37
2018-09-09T07:32:25.361Z,4.67
2018-09-09T07:34:53.861Z,4.60
2018-09-09T07:37:22.432Z,4.53
2018-09-09T07:40:09.365Z,3.90
2018-09-09T07:42:37.860Z,5.07
2018-09-09T07:45:06.240Z,4.80
2018-09-09T07:47:34.789Z,4.10
2018-09-09T07:50:12.702Z,4.30
2018-09-09T07:52:40.884Z,4.30
2018-09-09T07:55:09.254Z,4.43
2018-09-09T07:57:37.737Z,4.33
2018-09-09T08:00:21.121Z,4.20
2018-09-09T08:02:49.521Z,4.20
2018-09-09T08:05:17.942Z,4.20
2018-09-09T08:07:46.380Z,3.77
2018-09-09T08:10:15.580Z,3.87
2018-09-09T08:12:44.085Z,3.80
2018-09-09T08:15:12.544Z,4.30
2018-09-09T08:17:40.905Z,4.33
2018-09-09T08:20:20.532Z,4.17
2018-09-09T08:22:48.966Z,4.67
2018-09-09T08:25:17.446Z,4.20
2018-09-09T08:27:45.596Z,3.93
2018-09-09T08:30:16.225Z,4.23
2018-09-09T08:32:44.687Z,3.97
2018-09-09T08:35:13.120Z,4.40
2018-09-09T08:37:41.668Z,4.27
2018-09-09T08:40:17.940Z,4.30
2018-09-09T08:42:46.381Z,4.20
2018-09-09T08:45:14.845Z,3.93
2018-09-09T08:47:43.231Z,4.00
2018-09-09T08:50:11.828Z,4.40
2018-09-09T08:52:40.456Z,3.50
2018-09-09T08:55:08.909Z,3.77
2018-09-09T08:57:37.448Z,3.20
2018-09-09T09:00:07.955Z,3.07
2018-09-09T09:02:36.557Z,3.03
2018-09-09T09:05:05.062Z,3.10
2018-09-09T09:07:33.447Z,2.93
2018-09-09T09:10:24.565Z,2.92
2018-09-09T09:12:53.056Z,2.80
2018-09-09T09:15:21.446Z,2.37
2018-09-09T09:17:49.824Z,2.60
2018-09-09T09:20:19.312Z,2.35
2018-09-09T09:22:47.779Z,2.75
2018-09-09T09:25:16.161Z,2.67
2018-09-09T09:27:44.679Z,2.50
2018-09-09T09:30:18.185Z,2.22
2018-09-09T09:32:47.654Z,2.27
2018-09-09T09:35:16.137Z,2.20
2018-09-09T09:37:44.557Z,2.00
2018-09-09T09:40:13.088Z,2.00
2018-09-09T09:42:41.514Z,2.22
2018-09-09T09:45:10.206Z,2.00
2018-09-09T09:47:38.735Z,1.93
2018-09-09T09:50:25.877Z,2.07
2018-09-09T09:52:54.147Z,1.87
2018-09-09T09:55:22.492Z,1.63
2018-09-09T09:57:50.721Z,1.17
2018-09-09T10:00:32.046Z,1.40
2018-09-09T10:03:00.556Z,1.43
2018-09-09T10:05:29.055Z,1.72
2018-09-09T10:07:57.191Z,1.35
2018-09-09T10:10:49.392Z,1.50
2018-09-09T10:13:17.575Z,1.42
2018-09-09T10:15:46.196Z,1.40
2018-09-09T10:18:14.730Z,1.12
2018-09-09T10:20:48.048Z,1.12
2018-09-09T10:23:16.494Z,1.20
2018-09-09T10:25:44.931Z,1.32
2018-09-09T10:28:13.457Z,1.65
2018-09-09T10:30:42.279Z,1.00
2018-09-09T10:33:10.797Z,1.25
2018-09-09T10:35:39.231Z,1.50
2018-09-09T10:38:07.692Z,1.27
2018-09-09T10:40:39.819Z,1.40
2018-09-09T10:43:08.381Z,1.57
2018-09-09T10:45:38.285Z,1.30
2018-09-09T10:48:06.752Z,1.30
2018-09-09T10:50:42.991Z,1.35
2018-09-09T10:53:11.427Z,1.37
2018-09-09T10:55:39.916Z,1.20
2018-09-09T10:58:08.406Z,1.20
2018-09-09T11:00:37.967Z,0.95
2018-09-09T11:03:06.490Z,0.88
2018-09-09T11:05:35.016Z,1.00
2018-09-09T11:08:03.433Z,1.10
2018-09-09T11:10:48.829Z,1.07
2018-09-09T11:13:17.259Z,1.25
2018-09-09T11:15:45.708Z,1.10
2018-09-09T11:18:14.129Z,1.00
2018-09-09T11:20:42.669Z,1.20
2018-09-09T11:23:11.109Z,1.05
2018-09-09T11:25:39.262Z,0.80
2018-09-09T11:28:07.394Z,1.20
2018-09-09T11:30:49.619Z,1.25
2018-09-09T11:33:18.156Z,1.10
2018-09-09T11:35:46.643Z,0.95
2018-09-09T11:38:14.829Z,0.98
2018-09-09T11:40:45.397Z,1.10
2018-09-09T11:43:13.825Z,0.85
2018-09-09T11:45:42.259Z,0.80
2018-09-09T11:48:10.691Z,1.07
2018-09-09T11:50:46.489Z,0.90
2018-09-09T11:53:14.988Z,0.93
2018-09-09T11:55:43.168Z,0.93
2018-09-09T11:58:11.293Z,0.98
2018-09-09T12:00:40.438Z,1.00
2018-09-09T12:03:08.890Z,1.40
2018-09-09T12:05:37.237Z,1.10
2018-09-09T12:08:05.329Z,0.88
2018-09-09T12:10:38.255Z,1.12
2018-09-09T12:13:06.658Z,0.80
2018-09-09T12:15:35.137Z,0.93
2018-09-09T12:18:03.676Z,0.93
2018-09-09T12:20:32.347Z,1.20
2018-09-09T12:23:03.023Z,0.80
2018-09-09T12:25:31.427Z,1.02
2018-09-09T12:27:59.804Z,0.93
2018-09-09T12:30:33.671Z,0.80
2018-09-09T12:33:02.164Z,0.88
2018-09-09T12:35:30.551Z,1.00
2018-09-09T12:37:59.092Z,0.75
2018-09-09T12:40:31.517Z,0.70
2018-09-09T12:43:05.549Z,0.93
2018-09-09T12:45:39.032Z,0.98
2018-09-09T12:48:12.840Z,1.02
2018-09-09T12:50:43.451Z,0.75
2018-09-09T12:53:11.700Z,1.20
2018-09-09T12:55:40.166Z,0.65
2018-09-09T12:58:08.570Z,1.05
2018-09-09T13:00:49.689Z,0.70
2018-09-09T13:03:18.136Z,1.22
2018-09-09T13:05:46.592Z,0.88
2018-09-09T13:08:15.103Z,0.90
2018-09-09T13:10:43.597Z,0.90
2018-09-09T13:13:18.033Z,0.82
2018-09-09T13:15:46.934Z,1.02
2018-09-09T13:18:15.488Z,1.05
2018-09-09T13:20:45.226Z,1.00
